createdAt,value
2018-10-07T00:02:46.706Z,8.20
2018-10-07T00:05:51.017Z,8.20
2018-10-07T00:08:55.347Z,8.10
2018-10-07T00:11:59.662Z,8.10
2018-10-07T00:15:03.996Z,8.10
2018-10-07T00:18:08.246Z,8.10
2018-10-07T00:21:12.521Z,8.00
2018-10-07T00:24:16.771Z,8.00
2018-10-07T00:27:21.052Z,8.00
2018-10-07T00:30:25.417Z,7.90
2018-10-07T00:33:29.701Z,7.80
2018-10-07T00:36:33.961Z,7.80
2018-10-07T00:39:38.242Z,7.80
2018-10-07T00:42:42.565Z,7.80
2018-10-07T00:45:46.842Z,7.80
2018-10-07T00:48:51.103Z,7.70
2018-10-07T00:51:55.429Z,7.60
2018-10-07T00:54:59.778Z,7.60
2018-10-07T00:58:04.086Z,7.60
2018-10-07T01:01:08.397Z,7.60
2018-10-07T01:04:12.629Z,7.50
2018-10-07T01:07:16.928Z,7.50
2018-10-07T01:10:21.257Z,7.50
2018-10-07T01:13:25.514Z,7.50
2018-10-07T01:16:29.814Z,7.50
2018-10-07T01:19:34.122Z,7.50
2018-10-07T01:22:38.602Z,7.60
2018-10-07T01:25:43.718Z,7.50
2018-10-07T01:28:48.106Z,7.50
2018-10-07T01:31:52.439Z,7.50
2018-10-07T01:34:56.664Z,7.50
2018-10-07T01:38:00.973Z,7.50
2018-10-07T01:41:05.309Z,7.60
2018-10-07T01:44:09.649Z,7.60
2018-10-07T01:47:13.945Z,7.60
2018-10-07T01:50:18.256Z,7.60
2018-10-07T01:53:22.505Z,7.60
2018-10-07T01:56:26.792Z,7.60
2018-10-07T01:59:31.309Z,7.60
2018-10-07T02:02:35.498Z,7.60
2018-10-07T02:05:39.803Z,7.60
2018-10-07T02:08:44.107Z,7.60
2018-10-07T02:11:48.396Z,7.60
2018-10-07T02:14:52.729Z,7.60
2018-10-07T02:17:57.040Z,7.60
2018-10-07T02:21:01.369Z,7.60
2018-10-07T02:24:05.765Z,7.60
2018-10-07T02:27:10.104Z,7.60
2018-10-07T02:30:14.381Z,7.50
2018-10-07T02:33:18.998Z,7.50
2018-10-07T02:36:23.282Z,7.50
2018-10-07T02:39:27.613Z,7.50
2018-10-07T02:42:31.962Z,7.50
2018-10-07T02:45:36.253Z,7.60
2018-10-07T02:48:40.569Z,7.50
2018-10-07T02:51:44.945Z,7.50
2018-10-07T02:54:49.240Z,7.50
2018-10-07T02:57:54.891Z,7.50
2018-10-07T03:00:59.208Z,7.40
2018-10-07T03:04:03.513Z,7.30
2018-10-07T03:07:07.959Z,7.20
2018-10-07T03:10:12.617Z,7.10
2018-10-07T03:13:16.857Z,7.00
2018-10-07T03:16:21.109Z,6.90
2018-10-07T03:19:25.491Z,6.90
2018-10-07T03:22:30.116Z,6.80
2018-10-07T03:25:34.373Z,6.70
2018-10-07T03:28:38.705Z,6.70
2018-10-07T03:31:42.941Z,6.50
2018-10-07T03:34:47.403Z,6.60
2018-10-07T03:37:51.720Z,6.50
2018-10-07T03:40:56.163Z,6.50
2018-10-07T03:44:00.509Z,6.40
2018-10-07T03:47:04.848Z,6.30
2018-10-07T03:50:09.105Z,6.30
2018-10-07T03:53:13.362Z,6.30
2018-10-07T03:56:17.712Z,6.30
2018-10-07T03:59:22.036Z,6.30
2018-10-07T04:02:26.337Z,6.30
2018-10-07T04:05:30.664Z,6.30
2018-10-07T04:08:35.010Z,6.30
2018-10-07T04:11:39.687Z,6.30
2018-10-07T04:14:43.943Z,6.30
2018-10-07T04:17:48.261Z,6.20
2018-10-07T04:20:52.582Z,6.20
2018-10-07T04:23:56.910Z,6.20
2018-10-07T04:27:01.165Z,6.10
2018-10-07T04:30:05.545Z,6.10
2018-10-07T04:33:09.861Z,6.10
2018-10-07T04:36:14.109Z,6.00
2018-10-07T04:39:18.344Z,6.00
2018-10-07T04:42:22.633Z,6.00
2018-10-07T04:45:26.966Z,6.00
2018-10-07T04:48:31.395Z,6.00
2018-10-07T04:51:35.692Z,6.00
2018-10-07T04:54:39.970Z,6.00
2018-10-07T04:57:44.364Z,6.00
2018-10-07T05:00:48.752Z,6.00
2018-10-07T05:03:53.340Z,5.90
2018-10-07T05:06:57.678Z,5.90
2018-10-07T05:10:45.345Z,5.90
2018-10-07T05:13:52.894Z,5.90
2018-10-07T05:16:57.526Z,5.90
2018-10-07T05:20:01.918Z,5.90
2018-10-07T05:23:06.234Z,5.90
2018-10-07T05:26:10.525Z,6.00
2018-10-07T05:29:15.282Z,6.00
2018-10-07T05:32:19.721Z,6.00
2018-10-07T05:35:24.012Z,6.00
2018-10-07T05:38:28.258Z,6.00
2018-10-07T05:41:32.555Z,6.00
2018-10-07T05:44:36.975Z,6.00
2018-10-07T05:47:41.224Z,6.00
2018-10-07T05:50:45.508Z,6.00
2018-10-07T05:53:49.847Z,5.90
2018-10-07T05:56:54.194Z,6.00
2018-10-07T05:59:59.174Z,5.90
2018-10-07T06:04:19.362Z,5.90
2018-10-07T06:07:25.125Z,5.90
2018-10-07T06:10:29.505Z,6.00
2018-10-07T06:13:33.941Z,6.00
2018-10-07T06:16:38.243Z,6.00
2018-10-07T06:19:42.501Z,6.10
2018-10-07T06:22:46.755Z,6.10
2018-10-07T06:25:51.102Z,6.20
2018-10-07T06:28:55.438Z,6.30
2018-10-07T06:31:59.721Z,6.30
2018-10-07T06:35:04.069Z,6.40
2018-10-07T06:38:08.391Z,6.50
2018-10-07T06:41:12.688Z,6.50
2018-10-07T06:44:17.052Z,6.60
2018-10-07T06:47:21.410Z,6.60
2018-10-07T06:50:25.775Z,6.70
2018-10-07T06:53:30.102Z,6.80
2018-10-07T06:56:35.052Z,6.90
2018-10-07T06:59:39.454Z,6.90
2018-10-07T07:02:43.848Z,7.00
2018-10-07T07:05:48.190Z,7.10
2018-10-07T07:08:52.511Z,7.20
2018-10-07T07:11:56.861Z,7.30
2018-10-07T07:15:01.259Z,7.40
2018-10-07T07:18:05.706Z,7.50
2018-10-07T07:21:10.474Z,7.50
2018-10-07T07:24:14.759Z,7.70
2018-10-07T07:27:19.073Z,7.80
2018-10-07T07:30:23.457Z,7.90
2018-10-07T07:33:27.819Z,7.90
2018-10-07T07:36:32.251Z,8.00
2018-10-07T07:39:36.576Z,8.10
2018-10-07T07:42:40.863Z,8.10
2018-10-07T07:45:45.198Z,8.30
2018-10-07T07:48:49.643Z,8.40
2018-10-07T07:51:53.937Z,8.40
2018-10-07T07:54:58.219Z,8.60
2018-10-07T07:58:02.582Z,8.60
2018-10-07T08:01:06.888Z,8.70
2018-10-07T08:04:11.360Z,8.80
2018-10-07T08:07:15.678Z,8.90
2018-10-07T08:10:19.997Z,9.00
2018-10-07T08:13:24.249Z,9.10
2018-10-07T08:16:28.638Z,9.20
2018-10-07T08:19:33.093Z,9.30
2018-10-07T08:22:37.389Z,9.40
2018-10-07T08:25:41.746Z,9.50
2018-10-07T08:28:46.120Z,9.50
2018-10-07T08:31:50.428Z,9.60
2018-10-07T08:34:54.743Z,9.70
2018-10-07T08:37:59.096Z,9.80
2018-10-07T08:41:03.437Z,9.90
2018-10-07T08:44:07.929Z,10.00
2018-10-07T08:47:12.265Z,10.00
2018-10-07T08:50:16.689Z,10.10
2018-10-07T08:53:21.108Z,10.20
2018-10-07T08:56:25.456Z,10.30
2018-10-07T08:59:29.724Z,10.40
2018-10-07T09:02:34.062Z,10.50
2018-10-07T09:05:38.470Z,10.50
2018-10-07T09:08:42.884Z,10.60
2018-10-07T09:11:47.173Z,10.70
2018-10-07T09:14:51.487Z,10.80
2018-10-07T09:17:55.763Z,10.80
2018-10-07T09:21:00.165Z,10.90
2018-10-07T09:24:04.390Z,11.00
2018-10-07T09:27:08.912Z,11.10
2018-10-07T09:30:13.143Z,11.20
2018-10-07T09:33:17.405Z,11.30
2018-10-07T09:36:21.715Z,11.30
2018-10-07T09:39:26.050Z,11.30
2018-10-07T09:42:30.401Z,11.40
2018-10-07T09:45:34.817Z,11.40
2018-10-07T09:48:39.276Z,11.50
2018-10-07T09:51:43.564Z,11.50
2018-10-07T09:54:48.191Z,11.50
2018-10-07T09:57:52.630Z,11.60
2018-10-07T10:00:56.995Z,11.60
2018-10-07T10:04:01.338Z,11.80
2018-10-07T10:07:05.853Z,11.70
2018-10-07T10:10:10.109Z,11.80
2018-10-07T10:13:14.410Z,11.90
2018-10-07T10:16:18.872Z,12.00
2018-10-07T10:19:39.181Z,12.10
2018-10-07T10:23:09.552Z,12.20
2018-10-07T10:27:24.525Z,12.20
2018-10-07T10:32:52.714Z,12.30
2018-10-07T10:36:10.198Z,12.30
2018-10-07T10:39:30.479Z,12.30
2018-10-07T10:42:53.199Z,12.30
2018-10-07T10:46:06.708Z,12.30
2018-10-07T10:49:22.126Z,12.20
2018-10-07T10:53:44.266Z,12.20
2018-10-07T10:57:01.235Z,12.30
2018-10-07T11:00:48.900Z,12.30
2018-10-07T11:04:04.188Z,12.30
2018-10-07T11:07:16.736Z,12.40
2018-10-07T11:10:34.073Z,12.60
2018-10-07T11:13:44.073Z,12.80
2018-10-07T11:18:11.607Z,12.80
2018-10-07T11:22:34.218Z,12.90
2018-10-07T11:26:32.738Z,13.00
2018-10-07T11:29:49.305Z,12.90
2018-10-07T11:33:18.994Z,12.90
2018-10-07T11:36:49.588Z,12.80
2018-10-07T11:41:14.773Z,12.80
2018-10-07T11:44:55.648Z,12.80
2018-10-07T11:48:28.060Z,13.00
2018-10-07T11:53:46.816Z,13.10
2018-10-07T11:56:51.121Z,13.00
2018-10-07T11:59:55.563Z,13.00
2018-10-07T12:02:59.816Z,13.20
2018-10-07T12:06:04.255Z,13.50
2018-10-07T12:09:08.644Z,13.60
2018-10-07T12:12:13.407Z,13.60
2018-10-07T12:15:17.768Z,13.60
2018-10-07T12:18:22.058Z,13.70
2018-10-07T12:21:26.403Z,13.60
2018-10-07T12:24:30.795Z,13.50
2018-10-07T12:27:35.185Z,13.30
2018-10-07T12:30:39.535Z,13.40
2018-10-07T12:33:43.894Z,13.40
2018-10-07T12:36:48.547Z,13.30
2018-10-07T12:39:52.815Z,13.00
2018-10-07T12:42:57.110Z,12.80
2018-10-07T12:46:01.423Z,12.70
2018-10-07T12:49:05.750Z,12.70
2018-10-07T12:52:10.049Z,12.80
2018-10-07T12:55:14.375Z,13.00
2018-10-07T12:58:18.688Z,13.10
2018-10-07T13:01:23.007Z,13.10
2018-10-07T13:04:27.336Z,13.10
2018-10-07T13:07:31.794Z,13.20
2018-10-07T13:10:36.101Z,13.40
2018-10-07T13:13:41.085Z,13.50
2018-10-07T13:16:45.566Z,13.60
2018-10-07T13:19:49.893Z,13.70
2018-10-07T13:22:54.195Z,13.80
2018-10-07T13:25:58.529Z,13.90
2018-10-07T13:29:02.833Z,13.60
2018-10-07T13:32:07.498Z,13.60
2018-10-07T13:35:11.878Z,13.70
2018-10-07T13:38:16.211Z,13.80
2018-10-07T13:41:20.578Z,13.80
2018-10-07T13:44:24.864Z,13.70
2018-10-07T13:47:29.181Z,13.80
2018-10-07T13:50:33.581Z,13.70
2018-10-07T13:53:38.068Z,13.60
2018-10-07T13:56:42.483Z,13.50
2018-10-07T13:59:46.863Z,13.30
2018-10-07T14:02:51.211Z,13.20
2018-10-07T14:05:55.524Z,13.20
2018-10-07T14:08:59.836Z,13.20
2018-10-07T14:12:04.207Z,13.20
2018-10-07T14:15:08.945Z,13.20
2018-10-07T14:18:13.394Z,13.00
2018-10-07T14:21:18.496Z,13.10
2018-10-07T14:24:23.058Z,13.00
2018-10-07T14:27:27.366Z,13.00
2018-10-07T14:30:31.738Z,12.90
2018-10-07T14:33:36.338Z,12.90
2018-10-07T14:36:40.801Z,13.00
2018-10-07T14:39:45.227Z,12.90
2018-10-07T14:42:49.649Z,12.80
2018-10-07T14:45:54.061Z,12.90
2018-10-07T14:48:59.369Z,12.90
2018-10-07T14:52:04.977Z,12.80
2018-10-07T14:55:09.442Z,12.60
2018-10-07T14:58:14.537Z,12.50
2018-10-07T15:01:19.019Z,12.40
2018-10-07T15:04:23.711Z,12.50
2018-10-07T15:07:28.106Z,12.60
2018-10-07T15:10:32.586Z,12.50
2018-10-07T15:13:36.940Z,12.50
2018-10-07T15:16:41.292Z,12.50
2018-10-07T15:19:45.602Z,12.50
2018-10-07T15:22:49.951Z,12.60
2018-10-07T15:25:54.337Z,12.70
2018-10-07T15:28:58.729Z,12.70
2018-10-07T15:32:03.029Z,12.60
2018-10-07T15:35:07.350Z,12.60
2018-10-07T15:38:11.701Z,12.50
2018-10-07T15:41:16.053Z,12.40
2018-10-07T15:44:20.342Z,12.40
2018-10-07T15:47:24.696Z,12.30
2018-10-07T15:50:31.962Z,12.10
2018-10-07T15:53:36.343Z,12.00
2018-10-07T15:56:40.912Z,11.90
2018-10-07T15:59:45.263Z,11.80
2018-10-07T16:02:49.567Z,11.60
2018-10-07T16:05:53.867Z,11.50
2018-10-07T16:08:58.251Z,11.30
2018-10-07T16:12:02.759Z,11.10
2018-10-07T16:15:07.179Z,11.00
2018-10-07T16:18:12.206Z,10.80
2018-10-07T16:21:16.652Z,10.70
2018-10-07T16:24:21.060Z,10.60
2018-10-07T16:27:25.509Z,10.50
2018-10-07T16:30:30.114Z,10.50
2018-10-07T16:33:34.775Z,10.40
2018-10-07T16:36:39.060Z,10.40
2018-10-07T16:39:44.100Z,10.40
2018-10-07T16:42:48.556Z,10.40
2018-10-07T16:45:52.928Z,10.30
2018-10-07T16:48:57.345Z,10.30
2018-10-07T16:52:02.082Z,10.30
2018-10-07T16:55:06.698Z,10.20
2018-10-07T16:58:11.187Z,10.20
2018-10-07T17:01:15.510Z,10.20
2018-10-07T17:04:19.847Z,10.20
2018-10-07T17:07:24.227Z,10.10
2018-10-07T17:10:28.661Z,10.10
2018-10-07T17:13:33.082Z,10.00
2018-10-07T17:16:37.506Z,9.90
2018-10-07T17:19:41.920Z,9.90
2018-10-07T17:22:46.281Z,9.80
2018-10-07T17:25:50.682Z,9.70
2018-10-07T17:28:55.103Z,9.70
2018-10-07T17:31:59.557Z,9.60
2018-10-07T17:35:03.937Z,9.60
2018-10-07T17:38:08.683Z,9.60
2018-10-07T17:41:13.035Z,9.50
2018-10-07T17:44:17.379Z,9.50
2018-10-07T17:47:22.258Z,9.40
2018-10-07T17:50:26.630Z,9.40
2018-10-07T17:53:31.697Z,9.40
2018-10-07T17:56:36.250Z,9.40
2018-10-07T17:59:41.049Z,9.40
2018-10-07T18:02:45.634Z,9.30
2018-10-07T18:05:50.014Z,9.40
2018-10-07T18:08:54.522Z,9.40
2018-10-07T18:11:58.893Z,9.40
2018-10-07T18:15:03.366Z,9.40
2018-10-07T18:18:07.859Z,9.40
2018-10-07T18:21:12.345Z,9.40
2018-10-07T18:24:16.837Z,9.30
2018-10-07T18:27:21.414Z,9.30
2018-10-07T18:30:25.973Z,9.20
2018-10-07T18:33:30.519Z,9.20
2018-10-07T18:36:35.056Z,9.10
2018-10-07T18:39:39.650Z,9.10
2018-10-07T18:42:44.139Z,9.00
2018-10-07T18:45:48.878Z,8.90
2018-10-07T18:48:54.547Z,8.70
2018-10-07T18:51:59.282Z,8.60
2018-10-07T18:55:04.168Z,8.50
2018-10-07T18:58:09.379Z,8.30
2018-10-07T19:01:14.323Z,8.40
2018-10-07T19:04:18.901Z,8.30
2018-10-07T19:07:23.534Z,8.30
2018-10-07T19:10:29.271Z,8.30
2018-10-07T19:13:34.080Z,8.40
2018-10-07T19:16:38.967Z,8.40
2018-10-07T19:19:43.757Z,8.40
2018-10-07T19:22:48.975Z,8.40
2018-10-07T19:25:53.532Z,8.40
2018-10-07T19:28:58.060Z,8.40
2018-10-07T19:32:02.849Z,8.40
2018-10-07T19:35:07.549Z,8.30
2018-10-07T19:38:12.641Z,8.20
2018-10-07T19:41:17.296Z,8.10
2018-10-07T19:44:22.911Z,8.10
2018-10-07T19:47:28.287Z,8.00
2018-10-07T19:50:32.874Z,8.00
2018-10-07T19:53:37.549Z,8.00
2018-10-07T19:56:42.435Z,8.00
2018-10-07T19:59:47.029Z,8.00
2018-10-07T20:02:51.685Z,8.00
2018-10-07T20:05:56.207Z,8.00
2018-10-07T20:09:00.694Z,8.00
2018-10-07T20:12:05.184Z,8.00
2018-10-07T20:15:09.690Z,7.90
2018-10-07T20:18:14.226Z,7.90
2018-10-07T20:21:18.587Z,7.90
2018-10-07T20:24:23.056Z,7.80
2018-10-07T20:27:27.452Z,7.90
2018-10-07T20:30:31.811Z,7.90
2018-10-07T20:33:36.221Z,7.90
2018-10-07T20:36:40.598Z,7.90
2018-10-07T20:39:44.935Z,7.90
2018-10-07T20:42:49.298Z,8.00
2018-10-07T20:45:53.711Z,8.00
2018-10-07T20:48:58.110Z,8.10
2018-10-07T20:52:02.564Z,8.10
2018-10-07T20:55:07.001Z,8.10
2018-10-07T20:58:11.367Z,8.10
2018-10-07T21:01:15.711Z,8.10
2018-10-07T21:04:20.128Z,8.10
2018-10-07T21:07:24.461Z,8.10
2018-10-07T21:10:28.759Z,8.00
2018-10-07T21:13:33.076Z,8.00
2018-10-07T21:16:37.555Z,7.90
2018-10-07T21:19:41.991Z,7.80
2018-10-07T21:22:46.371Z,7.90
2018-10-07T21:25:50.636Z,7.80
2018-10-07T21:28:54.966Z,7.80
2018-10-07T21:31:59.309Z,7.70
2018-10-07T21:35:03.603Z,7.70
2018-10-07T21:38:07.942Z,7.60
2018-10-07T21:41:12.229Z,7.60
2018-10-07T21:44:16.590Z,7.60
2018-10-07T21:47:20.876Z,7.70
2018-10-07T21:50:25.228Z,7.70
2018-10-07T21:53:29.582Z,7.70
2018-10-07T21:56:33.903Z,7.70
2018-10-07T21:59:38.193Z,7.80
2018-10-07T22:02:42.555Z,7.80
2018-10-07T22:05:46.805Z,7.80
2018-10-07T22:08:51.504Z,7.80
2018-10-07T22:11:55.784Z,7.90
2018-10-07T22:15:00.105Z,7.90
2018-10-07T22:18:04.429Z,7.90
2018-10-07T22:21:08.771Z,8.00
2018-10-07T22:24:13.104Z,8.00
2018-10-07T22:27:17.453Z,8.10
2018-10-07T22:30:21.839Z,8.10
2018-10-07T22:33:26.281Z,8.10
2018-10-07T22:36:30.673Z,8.00
2018-10-07T22:39:34.983Z,8.00
2018-10-07T22:42:39.300Z,8.00
2018-10-07T22:45:43.734Z,8.00
2018-10-07T22:48:48.118Z,7.90
2018-10-07T22:51:52.499Z,7.90
2018-10-07T22:54:56.797Z,7.90
2018-10-07T22:58:01.162Z,7.90
2018-10-07T23:01:05.452Z,7.90
2018-10-07T23:04:09.811Z,7.80
2018-10-07T23:07:14.117Z,7.80
2018-10-07T23:10:18.433Z,7.80
2018-10-07T23:13:22.838Z,7.90
2018-10-07T23:16:27.077Z,7.90
2018-10-07T23:19:31.369Z,8.00
2018-10-07T23:22:35.680Z,8.10
2018-10-07T23:25:40.018Z,8.20
2018-10-07T23:28:44.359Z,8.20
2018-10-07T23:31:48.607Z,8.30
2018-10-07T23:34:52.868Z,8.30
2018-10-07T23:37:57.207Z,8.30
2018-10-07T23:41:01.467Z,8.30
2018-10-07T23:44:05.770Z,8.40
2018-10-07T23:47:10.067Z,8.40
2018-10-07T23:50:14.371Z,8.40
2018-10-07T23:53:18.697Z,8.40
2018-10-07T23:56:22.958Z,8.40
2018-10-07T23:59:27.238Z,8.40
